sensor_id;sensor_type;location;lat;lon;timestamp;P1;durP1;ratioP1;P2;durP2;ratioP2
53903;SDS011;39812;52.430;16.936;2023-07-30T00:02:17;34.92;;;18.05;;
53903;SDS011;39812;52.430;16.936;2023-07-30T00:04:43;35.92;;;18.58;;
53903;SDS011;39812;52.430;16.936;2023-07-30T00:07:09;25.77;;;16.33;;
53903;SDS011;39812;52.430;16.936;2023-07-30T00:09:36;31.33;;;17.50;;
53903;SDS011;39812;52.430;16.936;2023-07-30T00:12:02;31.77;;;19.17;;
53903;SDS011;39812;52.430;16.936;2023-07-30T00:14:28;27.38;;;16.73;;
53903;SDS011;39812;52.430;16.936;2023-07-30T00:16:53;28.38;;;16.33;;
53903;SDS011;39812;52.430;16.936;2023-07-30T00:19:19;28.65;;;16.70;;
53903;SDS011;39812;52.430;16.936;2023-07-30T00:21:44;33.53;;;16.58;;
53903;SDS011;39812;52.430;16.936;2023-07-30T00:24:12;29.25;;;16.85;;
53903;SDS011;39812;52.430;16.936;2023-07-30T00:26:38;28.75;;;16.13;;
53903;SDS011;39812;52.430;16.936;2023-07-30T00:29:04;28.00;;;17.27;;
53903;SDS011;39812;52.430;16.936;2023-07-30T00:31:29;29.40;;;15.70;;
53903;SDS011;39812;52.430;16.936;2023-07-30T00:33:55;26.08;;;16.33;;
53903;SDS011;39812;52.430;16.936;2023-07-30T00:36:20;25.88;;;16.25;;
53903;SDS011;39812;52.430;16.936;2023-07-30T00:38:46;24.83;;;15.65;;
53903;SDS011;39812;52.430;16.936;2023-07-30T00:41:12;24.90;;;15.20;;
53903;SDS011;39812;52.430;16.936;2023-07-30T00:43:37;25.17;;;15.73;;
53903;SDS011;39812;52.430;16.936;2023-07-30T00:46:03;25.45;;;15.57;;
53903;SDS011;39812;52.430;16.936;2023-07-30T00:48:29;26.98;;;15.13;;
53903;SDS011;39812;52.430;16.936;2023-07-30T00:50:55;24.17;;;14.68;;
53903;SDS011;39812;52.430;16.936;2023-07-30T00:53:22;26.60;;;16.20;;
53903;SDS011;39812;52.430;16.936;2023-07-30T00:55:49;20.75;;;13.82;;
53903;SDS011;39812;52.430;16.936;2023-07-30T00:58:15;21.92;;;15.43;;
53903;SDS011;39812;52.430;16.936;2023-07-30T01:00:42;24.73;;;15.45;;
53903;SDS011;39812;52.430;16.936;2023-07-30T01:03:07;27.45;;;17.25;;
53903;SDS011;39812;52.430;16.936;2023-07-30T01:05:33;28.38;;;15.80;;
53903;SDS011;39812;52.430;16.936;2023-07-30T01:07:59;25.77;;;16.08;;
53903;SDS011;39812;52.430;16.936;2023-07-30T01:10:24;25.67;;;16.50;;
53903;SDS011;39812;52.430;16.936;2023-07-30T01:12:51;27.45;;;16.83;;
53903;SDS011;39812;52.430;16.936;2023-07-30T01:15:17;27.05;;;16.13;;
53903;SDS011;39812;52.430;16.936;2023-07-30T01:17:43;25.63;;;17.60;;
53903;SDS011;39812;52.430;16.936;2023-07-30T01:20:10;32.08;;;17.85;;
53903;SDS011;39812;52.430;16.936;2023-07-30T01:22:36;27.92;;;16.88;;
53903;SDS011;39812;52.430;16.936;2023-07-30T01:25:02;27.23;;;17.17;;
53903;SDS011;39812;52.430;16.936;2023-07-30T01:27:28;31.08;;;16.20;;
53903;SDS011;39812;52.430;16.936;2023-07-30T01:30:00;33.25;;;18.00;;
53903;SDS011;39812;52.430;16.936;2023-07-30T01:32:33;32.42;;;17.58;;
53903;SDS011;39812;52.430;16.936;2023-07-30T01:34:59;30.65;;;18.10;;
53903;SDS011;39812;52.430;16.936;2023-07-30T01:37:26;32.58;;;18.50;;
53903;SDS011;39812;52.430;16.936;2023-07-30T01:39:54;31.50;;;18.73;;
53903;SDS011;39812;52.430;16.936;2023-07-30T01:42:20;30.92;;;18.73;;
53903;SDS011;39812;52.430;16.936;2023-07-30T01:44:46;32.50;;;20.23;;
53903;SDS011;39812;52.430;16.936;2023-07-30T01:47:11;35.28;;;18.95;;
53903;SDS011;39812;52.430;16.936;2023-07-30T01:49:37;35.38;;;19.23;;
53903;SDS011;39812;52.430;16.936;2023-07-30T01:52:03;34.05;;;18.88;;
53903;SDS011;39812;52.430;16.936;2023-07-30T01:54:28;35.33;;;19.80;;
53903;SDS011;39812;52.430;16.936;2023-07-30T01:56:54;33.63;;;19.00;;
53903;SDS011;39812;52.430;16.936;2023-07-30T01:59:20;35.75;;;20.88;;
53903;SDS011;39812;52.430;16.936;2023-07-30T02:01:45;35.33;;;19.67;;
53903;SDS011;39812;52.430;16.936;2023-07-30T02:04:11;38.67;;;20.05;;
53903;SDS011;39812;52.430;16.936;2023-07-30T02:06:36;40.38;;;21.08;;
53903;SDS011;39812;52.430;16.936;2023-07-30T02:09:02;42.00;;;22.08;;
53903;SDS011;39812;52.430;16.936;2023-07-30T02:11:28;42.20;;;20.60;;
53903;SDS011;39812;52.430;16.936;2023-07-30T02:13:53;37.03;;;20.95;;
53903;SDS011;39812;52.430;16.936;2023-07-30T02:16:19;39.08;;;20.33;;
53903;SDS011;39812;52.430;16.936;2023-07-30T02:18:45;37.13;;;20.85;;
53903;SDS011;39812;52.430;16.936;2023-07-30T02:21:10;40.75;;;20.95;;
53903;SDS011;39812;52.430;16.936;2023-07-30T02:23:36;41.60;;;20.48;;
53903;SDS011;39812;52.430;16.936;2023-07-30T02:26:02;42.83;;;20.25;;
53903;SDS011;39812;52.430;16.936;2023-07-30T02:28:27;40.42;;;19.80;;
53903;SDS011;39812;52.430;16.936;2023-07-30T02:30:53;38.42;;;20.25;;
53903;SDS011;39812;52.430;16.936;2023-07-30T02:33:19;36.55;;;20.08;;
53903;SDS011;39812;52.430;16.936;2023-07-30T02:35:44;35.30;;;19.83;;
53903;SDS011;39812;52.430;16.936;2023-07-30T02:38:10;38.55;;;20.13;;
53903;SDS011;39812;52.430;16.936;2023-07-30T02:40:35;39.65;;;20.50;;
53903;SDS011;39812;52.430;16.936;2023-07-30T02:43:01;37.15;;;19.48;;
53903;SDS011;39812;52.430;16.936;2023-07-30T02:45:26;42.10;;;20.58;;
53903;SDS011;39812;52.430;16.936;2023-07-30T02:47:52;37.80;;;20.15;;
53903;SDS011;39812;52.430;16.936;2023-07-30T02:50:18;37.92;;;21.08;;
53903;SDS011;39812;52.430;16.936;2023-07-30T02:52:43;39.30;;;20.20;;
53903;SDS011;39812;52.430;16.936;2023-07-30T02:55:09;37.65;;;20.48;;
53903;SDS011;39812;52.430;16.936;2023-07-30T02:57:35;35.60;;;18.98;;
53903;SDS011;39812;52.430;16.936;2023-07-30T03:00:00;36.50;;;19.75;;
53903;SDS011;39812;52.430;16.936;2023-07-30T03:02:27;42.33;;;19.50;;
53903;SDS011;39812;52.430;16.936;2023-07-30T03:04:52;37.38;;;20.25;;
53903;SDS011;39812;52.430;16.936;2023-07-30T03:07:18;36.08;;;20.23;;
53903;SDS011;39812;52.430;16.936;2023-07-30T03:09:44;40.15;;;19.98;;
53903;SDS011;39812;52.430;16.936;2023-07-30T03:12:10;34.95;;;19.58;;
53903;SDS011;39812;52.430;16.936;2023-07-30T03:14:36;35.10;;;19.92;;
53903;SDS011;39812;52.430;16.936;2023-07-30T03:17:02;36.80;;;20.70;;
53903;SDS011;39812;52.430;16.936;2023-07-30T03:19:29;39.65;;;21.02;;
53903;SDS011;39812;52.430;16.936;2023-07-30T03:21:55;42.03;;;21.38;;
53903;SDS011;39812;52.430;16.936;2023-07-30T03:24:21;41.05;;;21.63;;
53903;SDS011;39812;52.430;16.936;2023-07-30T03:26:46;40.92;;;20.27;;
53903;SDS011;39812;52.430;16.936;2023-07-30T03:29:12;39.92;;;21.83;;
53903;SDS011;39812;52.430;16.936;2023-07-30T03:31:37;45.22;;;22.27;;
53903;SDS011;39812;52.430;16.936;2023-07-30T03:34:03;42.42;;;21.35;;
53903;SDS011;39812;52.430;16.936;2023-07-30T03:36:28;38.80;;;21.08;;
53903;SDS011;39812;52.430;16.936;2023-07-30T03:38:54;38.05;;;21.10;;
53903;SDS011;39812;52.430;16.936;2023-07-30T03:41:20;37.10;;;20.55;;
53903;SDS011;39812;52.430;16.936;2023-07-30T03:43:45;39.75;;;20.63;;
53903;SDS011;39812;52.430;16.936;2023-07-30T03:46:11;45.15;;;20.25;;
53903;SDS011;39812;52.430;16.936;2023-07-30T03:48:37;39.65;;;20.75;;
53903;SDS011;39812;52.430;16.936;2023-07-30T03:51:03;39.17;;;19.92;;
53903;SDS011;39812;52.430;16.936;2023-07-30T03:53:29;38.20;;;20.20;;
53903;SDS011;39812;52.430;16.936;2023-07-30T03:55:54;44.78;;;21.75;;
53903;SDS011;39812;52.430;16.936;2023-07-30T03:58:20;43.03;;;22.17;;
53903;SDS011;39812;52.430;16.936;2023-07-30T04:00:45;41.78;;;21.38;;
53903;SDS011;39812;52.430;16.936;2023-07-30T04:03:11;45.30;;;21.17;;
53903;SDS011;39812;52.430;16.936;2023-07-30T04:05:37;44.17;;;20.77;;
53903;SDS011;39812;52.430;16.936;2023-07-30T04:08:02;46.75;;;21.35;;
53903;SDS011;39812;52.430;16.936;2023-07-30T04:10:28;43.13;;;20.88;;
53903;SDS011;39812;52.430;16.936;2023-07-30T04:12:54;42.78;;;21.33;;
53903;SDS011;39812;52.430;16.936;2023-07-30T04:15:19;39.65;;;20.58;;
53903;SDS011;39812;52.430;16.936;2023-07-30T04:17:45;37.83;;;20.17;;
53903;SDS011;39812;52.430;16.936;2023-07-30T04:20:11;38.55;;;20.67;;
53903;SDS011;39812;52.430;16.936;2023-07-30T04:22:36;41.40;;;20.80;;
53903;SDS011;39812;52.430;16.936;2023-07-30T04:25:02;38.35;;;21.05;;
53903;SDS011;39812;52.430;16.936;2023-07-30T04:27:28;36.75;;;19.73;;
53903;SDS011;39812;52.430;16.936;2023-07-30T04:29:54;38.80;;;18.70;;
53903;SDS011;39812;52.430;16.936;2023-07-30T04:32:19;33.90;;;18.20;;
53903;SDS011;39812;52.430;16.936;2023-07-30T04:34:45;32.50;;;17.95;;
53903;SDS011;39812;52.430;16.936;2023-07-30T04:37:11;38.17;;;18.98;;
53903;SDS011;39812;52.430;16.936;2023-07-30T04:39:36;29.75;;;17.40;;
53903;SDS011;39812;52.430;16.936;2023-07-30T04:42:02;34.55;;;18.08;;
53903;SDS011;39812;52.430;16.936;2023-07-30T04:44:28;32.17;;;17.42;;
53903;SDS011;39812;52.430;16.936;2023-07-30T04:46:54;30.60;;;16.50;;
53903;SDS011;39812;52.430;16.936;2023-07-30T04:49:20;30.73;;;17.45;;
53903;SDS011;39812;52.430;16.936;2023-07-30T04:51:45;33.45;;;18.05;;
53903;SDS011;39812;52.430;16.936;2023-07-30T04:54:11;31.15;;;17.85;;
53903;SDS011;39812;52.430;16.936;2023-07-30T04:56:37;30.13;;;17.33;;
53903;SDS011;39812;52.430;16.936;2023-07-30T04:59:02;28.25;;;17.02;;
53903;SDS011;39812;52.430;16.936;2023-07-30T05:01:28;27.42;;;16.38;;
53903;SDS011;39812;52.430;16.936;2023-07-30T05:03:54;35.97;;;18.80;;
53903;SDS011;39812;52.430;16.936;2023-07-30T05:06:20;34.65;;;18.48;;
53903;SDS011;39812;52.430;16.936;2023-07-30T05:08:46;41.88;;;20.17;;
53903;SDS011;39812;52.430;16.936;2023-07-30T05:11:11;41.53;;;19.15;;
53903;SDS011;39812;52.430;16.936;2023-07-30T05:13:37;38.80;;;18.80;;
53903;SDS011;39812;52.430;16.936;2023-07-30T05:16:03;32.58;;;17.02;;
53903;SDS011;39812;52.430;16.936;2023-07-30T05:18:29;30.38;;;17.65;;
53903;SDS011;39812;52.430;16.936;2023-07-30T05:20:54;34.88;;;18.85;;
53903;SDS011;39812;52.430;16.936;2023-07-30T05:23:20;29.95;;;17.10;;
53903;SDS011;39812;52.430;16.936;2023-07-30T05:25:46;31.95;;;17.05;;
53903;SDS011;39812;52.430;16.936;2023-07-30T05:28:12;33.20;;;17.20;;
53903;SDS011;39812;52.430;16.936;2023-07-30T05:30:38;29.25;;;16.48;;
53903;SDS011;39812;52.430;16.936;2023-07-30T05:33:03;26.85;;;15.52;;
53903;SDS011;39812;52.430;16.936;2023-07-30T05:35:29;28.77;;;16.45;;
53903;SDS011;39812;52.430;16.936;2023-07-30T05:37:55;30.80;;;14.73;;
53903;SDS011;39812;52.430;16.936;2023-07-30T05:40:21;27.60;;;15.20;;
53903;SDS011;39812;52.430;16.936;2023-07-30T05:42:47;31.85;;;16.35;;
53903;SDS011;39812;52.430;16.936;2023-07-30T05:45:13;26.35;;;15.73;;
53903;SDS011;39812;52.430;16.936;2023-07-30T05:47:38;23.02;;;14.73;;
53903;SDS011;39812;52.430;16.936;2023-07-30T05:50:06;21.75;;;15.15;;
53903;SDS011;39812;52.430;16.936;2023-07-30T05:52:32;24.90;;;13.77;;
53903;SDS011;39812;52.430;16.936;2023-07-30T05:54:58;20.08;;;13.68;;
53903;SDS011;39812;52.430;16.936;2023-07-30T05:57:24;24.45;;;14.02;;
53903;SDS011;39812;52.430;16.936;2023-07-30T05:59:50;20.05;;;13.70;;
53903;SDS011;39812;52.430;16.936;2023-07-30T06:02:16;22.42;;;13.35;;
53903;SDS011;39812;52.430;16.936;2023-07-30T06:04:41;21.10;;;12.48;;
53903;SDS011;39812;52.430;16.936;2023-07-30T06:07:07;20.33;;;12.82;;
53903;SDS011;39812;52.430;16.936;2023-07-30T06:09:33;19.42;;;12.88;;
53903;SDS011;39812;52.430;16.936;2023-07-30T06:11:58;17.90;;;12.65;;
53903;SDS011;39812;52.430;16.936;2023-07-30T06:14:24;18.42;;;11.63;;
53903;SDS011;39812;52.430;16.936;2023-07-30T06:16:51;15.35;;;11.32;;
53903;SDS011;39812;52.430;16.936;2023-07-30T06:19:17;15.57;;;10.77;;
53903;SDS011;39812;52.430;16.936;2023-07-30T06:21:42;14.73;;;10.88;;
53903;SDS011;39812;52.430;16.936;2023-07-30T06:24:08;17.30;;;11.32;;
53903;SDS011;39812;52.430;16.936;2023-07-30T06:26:33;13.98;;;10.32;;
53903;SDS011;39812;52.430;16.936;2023-07-30T06:28:59;15.25;;;10.40;;
53903;SDS011;39812;52.430;16.936;2023-07-30T06:31:25;16.25;;;11.25;;
53903;SDS011;39812;52.430;16.936;2023-07-30T06:33:50;14.55;;;11.20;;
53903;SDS011;39812;52.430;16.936;2023-07-30T06:36:16;15.13;;;11.52;;
53903;SDS011;39812;52.430;16.936;2023-07-30T06:38:42;15.40;;;11.30;;
53903;SDS011;39812;52.430;16.936;2023-07-30T06:41:07;14.68;;;10.45;;
53903;SDS011;39812;52.430;16.936;2023-07-30T06:43:33;13.93;;;10.73;;
53903;SDS011;39812;52.430;16.936;2023-07-30T06:45:59;15.95;;;9.82;;
53903;SDS011;39812;52.430;16.936;2023-07-30T06:48:24;12.55;;;9.73;;
53903;SDS011;39812;52.430;16.936;2023-07-30T06:50:50;13.80;;;10.88;;
53903;SDS011;39812;52.430;16.936;2023-07-30T06:53:15;14.68;;;11.02;;
53903;SDS011;39812;52.430;16.936;2023-07-30T06:55:41;16.75;;;11.13;;
53903;SDS011;39812;52.430;16.936;2023-07-30T06:58:07;15.40;;;11.02;;
53903;SDS011;39812;52.430;16.936;2023-07-30T07:00:32;17.00;;;11.48;;
53903;SDS011;39812;52.430;16.936;2023-07-30T07:02:58;13.90;;;10.05;;
53903;SDS011;39812;52.430;16.936;2023-07-30T07:05:23;15.23;;;10.10;;
53903;SDS011;39812;52.430;16.936;2023-07-30T07:07:49;13.85;;;10.02;;
53903;SDS011;39812;52.430;16.936;2023-07-30T07:10:15;13.60;;;9.32;;
53903;SDS011;39812;52.430;16.936;2023-07-30T07:12:40;13.75;;;9.30;;
53903;SDS011;39812;52.430;16.936;2023-07-30T07:15:06;11.63;;;8.82;;
53903;SDS011;39812;52.430;16.936;2023-07-30T07:17:32;12.52;;;8.50;;
53903;SDS011;39812;52.430;16.936;2023-07-30T07:19:58;12.15;;;8.82;;
53903;SDS011;39812;52.430;16.936;2023-07-30T07:22:24;11.68;;;8.73;;
53903;SDS011;39812;52.430;16.936;2023-07-30T07:24:50;11.25;;;8.48;;
53903;SDS011;39812;52.430;16.936;2023-07-30T07:27:17;10.02;;;8.02;;
53903;SDS011;39812;52.430;16.936;2023-07-30T07:29:43;12.90;;;8.65;;
53903;SDS011;39812;52.430;16.936;2023-07-30T07:32:09;10.88;;;8.30;;
53903;SDS011;39812;52.430;16.936;2023-07-30T07:34:35;11.38;;;8.57;;
53903;SDS011;39812;52.430;16.936;2023-07-30T07:37:01;11.90;;;8.98;;
53903;SDS011;39812;52.430;16.936;2023-07-30T07:39:26;12.15;;;7.75;;
53903;SDS011;39812;52.430;16.936;2023-07-30T07:41:52;10.88;;;8.35;;
53903;SDS011;39812;52.430;16.936;2023-07-30T07:44:18;11.10;;;8.15;;
53903;SDS011;39812;52.430;16.936;2023-07-30T07:46:43;9.85;;;6.30;;
53903;SDS011;39812;52.430;16.936;2023-07-30T07:49:09;9.02;;;6.43;;
53903;SDS011;39812;52.430;16.936;2023-07-30T07:51:34;8.13;;;6.78;;
53903;SDS011;39812;52.430;16.936;2023-07-30T07:54:00;8.27;;;6.28;;
53903;SDS011;39812;52.430;16.936;2023-07-30T07:56:26;7.50;;;6.00;;
53903;SDS011;39812;52.430;16.936;2023-07-30T07:58:51;8.25;;;6.25;;
53903;SDS011;39812;52.430;16.936;2023-07-30T08:01:17;9.68;;;6.40;;
53903;SDS011;39812;52.430;16.936;2023-07-30T08:03:43;7.72;;;5.70;;
53903;SDS011;39812;52.430;16.936;2023-07-30T08:06:09;8.23;;;5.85;;
53903;SDS011;39812;52.430;16.936;2023-07-30T08:08:35;8.77;;;6.82;;
53903;SDS011;39812;52.430;16.936;2023-07-30T08:11:07;8.07;;;6.07;;
53903;SDS011;39812;52.430;16.936;2023-07-30T08:13:34;6.32;;;5.50;;
53903;SDS011;39812;52.430;16.936;2023-07-30T08:16:00;8.57;;;5.68;;
53903;SDS011;39812;52.430;16.936;2023-07-30T08:18:26;9.68;;;5.72;;
53903;SDS011;39812;52.430;16.936;2023-07-30T08:20:52;7.70;;;5.75;;
53903;SDS011;39812;52.430;16.936;2023-07-30T08:23:17;6.75;;;4.88;;
53903;SDS011;39812;52.430;16.936;2023-07-30T08:25:43;6.97;;;5.20;;
53903;SDS011;39812;52.430;16.936;2023-07-30T08:28:08;6.47;;;4.57;;
53903;SDS011;39812;52.430;16.936;2023-07-30T08:30:34;7.13;;;5.13;;
53903;SDS011;39812;52.430;16.936;2023-07-30T08:33:00;8.52;;;5.53;;
53903;SDS011;39812;52.430;16.936;2023-07-30T08:35:25;6.20;;;4.90;;
53903;SDS011;39812;52.430;16.936;2023-07-30T08:37:52;7.90;;;5.00;;
53903;SDS011;39812;52.430;16.936;2023-07-30T08:40:17;8.48;;;5.03;;
53903;SDS011;39812;52.430;16.936;2023-07-30T08:42:43;7.78;;;4.65;;
53903;SDS011;39812;52.430;16.936;2023-07-30T08:45:09;11.25;;;4.70;;
53903;SDS011;39812;52.430;16.936;2023-07-30T08:47:35;8.35;;;5.43;;
53903;SDS011;39812;52.430;16.936;2023-07-30T08:50:01;7.50;;;4.93;;
53903;SDS011;39812;52.430;16.936;2023-07-30T08:52:26;7.85;;;5.13;;
53903;SDS011;39812;52.430;16.936;2023-07-30T08:54:54;11.07;;;4.75;;
53903;SDS011;39812;52.430;16.936;2023-07-30T08:57:22;7.90;;;5.00;;
53903;SDS011;39812;52.430;16.936;2023-07-30T08:59:50;5.28;;;4.70;;
53903;SDS011;39812;52.430;16.936;2023-07-30T09:02:24;7.65;;;5.05;;
53903;SDS011;39812;52.430;16.936;2023-07-30T09:04:56;9.23;;;5.63;;
53903;SDS011;39812;52.430;16.936;2023-07-30T09:07:25;8.00;;;4.80;;
53903;SDS011;39812;52.430;16.936;2023-07-30T09:09:50;8.45;;;4.40;;
53903;SDS011;39812;52.430;16.936;2023-07-30T09:12:16;6.68;;;4.35;;
53903;SDS011;39812;52.430;16.936;2023-07-30T09:14:42;6.80;;;4.38;;
53903;SDS011;39812;52.430;16.936;2023-07-30T09:17:15;5.60;;;4.05;;
53903;SDS011;39812;52.430;16.936;2023-07-30T09:19:42;6.20;;;3.67;;
53903;SDS011;39812;52.430;16.936;2023-07-30T09:22:08;7.35;;;4.38;;
53903;SDS011;39812;52.430;16.936;2023-07-30T09:24:34;5.70;;;3.70;;
53903;SDS011;39812;52.430;16.936;2023-07-30T09:27:02;8.23;;;3.10;;
53903;SDS011;39812;52.430;16.936;2023-07-30T09:29:28;6.30;;;2.97;;
53903;SDS011;39812;52.430;16.936;2023-07-30T09:31:54;3.75;;;2.70;;
53903;SDS011;39812;52.430;16.936;2023-07-30T09:34:21;5.93;;;2.75;;
53903;SDS011;39812;52.430;16.936;2023-07-30T09:36:54;4.50;;;2.45;;
53903;SDS011;39812;52.430;16.936;2023-07-30T09:39:22;3.55;;;2.65;;
53903;SDS011;39812;52.430;16.936;2023-07-30T09:41:52;3.95;;;2.95;;
53903;SDS011;39812;52.430;16.936;2023-07-30T09:44:24;3.75;;;2.15;;
53903;SDS011;39812;52.430;16.936;2023-07-30T09:46:50;2.83;;;2.05;;
53903;SDS011;39812;52.430;16.936;2023-07-30T09:49:16;2.95;;;2.30;;
53903;SDS011;39812;52.430;16.936;2023-07-30T09:51:42;3.67;;;1.90;;
53903;SDS011;39812;52.430;16.936;2023-07-30T09:54:11;2.70;;;1.70;;
53903;SDS011;39812;52.430;16.936;2023-07-30T09:56:40;4.80;;;2.17;;
53903;SDS011;39812;52.430;16.936;2023-07-30T09:59:07;2.58;;;1.85;;
53903;SDS011;39812;52.430;16.936;2023-07-30T10:01:44;2.45;;;1.77;;
53903;SDS011;39812;52.430;16.936;2023-07-30T10:04:14;3.13;;;1.83;;
53903;SDS011;39812;52.430;16.936;2023-07-30T10:07:00;2.72;;;2.13;;
53903;SDS011;39812;52.430;16.936;2023-07-30T10:09:33;3.08;;;2.00;;
53903;SDS011;39812;52.430;16.936;2023-07-30T10:12:08;5.45;;;2.00;;
53903;SDS011;39812;52.430;16.936;2023-07-30T10:14:35;3.08;;;1.70;;
53903;SDS011;39812;52.430;16.936;2023-07-30T10:17:01;2.78;;;2.03;;
53903;SDS011;39812;52.430;16.936;2023-07-30T10:19:27;2.50;;;1.95;;
53903;SDS011;39812;52.430;16.936;2023-07-30T10:21:57;2.83;;;1.48;;
53903;SDS011;39812;52.430;16.936;2023-07-30T10:24:57;2.80;;;1.67;;
53903;SDS011;39812;52.430;16.936;2023-07-30T10:27:36;4.25;;;1.95;;
53903;SDS011;39812;52.430;16.936;2023-07-30T10:30:16;5.63;;;1.63;;
53903;SDS011;39812;52.430;16.936;2023-07-30T10:35:37;2.20;;;1.48;;
53903;SDS011;39812;52.430;16.936;2023-07-30T10:38:22;3.30;;;1.70;;
53903;SDS011;39812;52.430;16.936;2023-07-30T10:41:04;2.30;;;1.50;;
53903;SDS011;39812;52.430;16.936;2023-07-30T10:43:47;2.40;;;1.73;;
53903;SDS011;39812;52.430;16.936;2023-07-30T10:46:16;2.28;;;1.38;;
53903;SDS011;39812;52.430;16.936;2023-07-30T10:48:44;3.63;;;1.85;;
53903;SDS011;39812;52.430;16.936;2023-07-30T10:51:12;4.07;;;1.60;;
53903;SDS011;39812;52.430;16.936;2023-07-30T10:53:42;2.97;;;1.70;;
53903;SDS011;39812;52.430;16.936;2023-07-30T10:56:10;4.38;;;1.73;;
53903;SDS011;39812;52.430;16.936;2023-07-30T10:58:36;2.50;;;1.75;;
53903;SDS011;39812;52.430;16.936;2023-07-30T11:01:03;3.65;;;1.55;;
53903;SDS011;39812;52.430;16.936;2023-07-30T11:03:30;1.90;;;1.48;;
53903;SDS011;39812;52.430;16.936;2023-07-30T11:05:59;2.50;;;1.48;;
53903;SDS011;39812;52.430;16.936;2023-07-30T11:08:36;2.33;;;1.42;;
53903;SDS011;39812;52.430;16.936;2023-07-30T11:11:03;1.92;;;1.55;;
53903;SDS011;39812;52.430;16.936;2023-07-30T11:13:34;4.78;;;1.80;;
53903;SDS011;39812;52.430;16.936;2023-07-30T11:16:01;2.88;;;1.60;;
53903;SDS011;39812;52.430;16.936;2023-07-30T11:18:30;4.45;;;1.48;;
53903;SDS011;39812;52.430;16.936;2023-07-30T11:23:29;2.50;;;1.70;;
53903;SDS011;39812;52.430;16.936;2023-07-30T11:25:55;2.50;;;1.60;;
53903;SDS011;39812;52.430;16.936;2023-07-30T11:28:27;2.97;;;1.75;;
53903;SDS011;39812;52.430;16.936;2023-07-30T11:30:55;2.10;;;1.30;;
53903;SDS011;39812;52.430;16.936;2023-07-30T11:33:24;3.53;;;1.60;;
53903;SDS011;39812;52.430;16.936;2023-07-30T11:35:49;3.38;;;1.20;;
53903;SDS011;39812;52.430;16.936;2023-07-30T11:38:15;3.85;;;2.30;;
53903;SDS011;39812;52.430;16.936;2023-07-30T11:40:44;5.65;;;2.70;;
53903;SDS011;39812;52.430;16.936;2023-07-30T11:43:11;2.03;;;1.60;;
53903;SDS011;39812;52.430;16.936;2023-07-30T11:45:37;3.75;;;1.50;;
53903;SDS011;39812;52.430;16.936;2023-07-30T11:48:06;1.77;;;1.20;;
53903;SDS011;39812;52.430;16.936;2023-07-30T11:50:47;3.28;;;1.30;;
53903;SDS011;39812;52.430;16.936;2023-07-30T11:53:14;1.80;;;1.30;;
53903;SDS011;39812;52.430;16.936;2023-07-30T11:55:40;2.17;;;1.58;;
53903;SDS011;39812;52.430;16.936;2023-07-30T11:58:08;1.60;;;1.30;;
53903;SDS011;39812;52.430;16.936;2023-07-30T12:00:38;1.92;;;1.23;;
53903;SDS011;39812;52.430;16.936;2023-07-30T12:03:06;2.58;;;1.55;;
53903;SDS011;39812;52.430;16.936;2023-07-30T12:05:35;2.00;;;1.23;;
53903;SDS011;39812;52.430;16.936;2023-07-30T12:08:02;2.00;;;1.25;;
53903;SDS011;39812;52.430;16.936;2023-07-30T12:10:45;3.90;;;1.38;;
53903;SDS011;39812;52.430;16.936;2023-07-30T12:13:17;1.77;;;1.17;;
53903;SDS011;39812;52.430;16.936;2023-07-30T12:15:52;4.75;;;1.80;;
53903;SDS011;39812;52.430;16.936;2023-07-30T12:18:22;3.40;;;1.27;;
53903;SDS011;39812;52.430;16.936;2023-07-30T12:20:49;2.03;;;1.35;;
53903;SDS011;39812;52.430;16.936;2023-07-30T12:23:16;2.70;;;1.20;;
53903;SDS011;39812;52.430;16.936;2023-07-30T12:25:42;2.60;;;1.10;;
53903;SDS011;39812;52.430;16.936;2023-07-30T12:28:07;2.08;;;1.10;;
53903;SDS011;39812;52.430;16.936;2023-07-30T12:30:33;2.17;;;1.40;;
53903;SDS011;39812;52.430;16.936;2023-07-30T12:33:00;1.38;;;1.10;;
53903;SDS011;39812;52.430;16.936;2023-07-30T12:35:26;1.40;;;1.20;;
53903;SDS011;39812;52.430;16.936;2023-07-30T12:37:52;2.22;;;1.10;;
53903;SDS011;39812;52.430;16.936;2023-07-30T12:40:17;2.08;;;1.10;;
53903;SDS011;39812;52.430;16.936;2023-07-30T12:42:43;2.30;;;1.10;;
53903;SDS011;39812;52.430;16.936;2023-07-30T12:45:09;1.50;;;1.10;;
53903;SDS011;39812;52.430;16.936;2023-07-30T12:47:35;1.50;;;1.20;;
53903;SDS011;39812;52.430;16.936;2023-07-30T12:50:01;1.55;;;0.98;;
53903;SDS011;39812;52.430;16.936;2023-07-30T12:52:28;1.52;;;1.10;;
53903;SDS011;39812;52.430;16.936;2023-07-30T12:54:53;1.45;;;0.90;;
53903;SDS011;39812;52.430;16.936;2023-07-30T12:57:19;4.22;;;1.13;;
53903;SDS011;39812;52.430;16.936;2023-07-30T12:59:44;1.88;;;1.20;;
53903;SDS011;39812;52.430;16.936;2023-07-30T13:02:10;1.40;;;1.00;;
53903;SDS011;39812;52.430;16.936;2023-07-30T13:04:36;2.22;;;1.05;;
53903;SDS011;39812;52.430;16.936;2023-07-30T13:07:01;1.60;;;0.90;;
53903;SDS011;39812;52.430;16.936;2023-07-30T13:09:27;1.73;;;1.10;;
53903;SDS011;39812;52.430;16.936;2023-07-30T13:11:53;1.85;;;1.20;;
53903;SDS011;39812;52.430;16.936;2023-07-30T13:14:19;2.00;;;1.10;;
53903;SDS011;39812;52.430;16.936;2023-07-30T13:16:44;4.28;;;1.08;;
53903;SDS011;39812;52.430;16.936;2023-07-30T13:19:10;1.73;;;1.15;;
53903;SDS011;39812;52.430;16.936;2023-07-30T13:21:36;2.55;;;1.05;;
53903;SDS011;39812;52.430;16.936;2023-07-30T13:24:02;4.35;;;1.23;;
53903;SDS011;39812;52.430;16.936;2023-07-30T13:26:28;1.27;;;1.10;;
53903;SDS011;39812;52.430;16.936;2023-07-30T13:28:53;4.25;;;1.05;;
53903;SDS011;39812;52.430;16.936;2023-07-30T13:31:19;1.58;;;1.05;;
53903;SDS011;39812;52.430;16.936;2023-07-30T13:33:45;2.85;;;1.20;;
53903;SDS011;39812;52.430;16.936;2023-07-30T13:36:12;1.65;;;1.00;;
53903;SDS011;39812;52.430;16.936;2023-07-30T13:38:38;1.58;;;1.15;;
53903;SDS011;39812;52.430;16.936;2023-07-30T13:41:04;2.83;;;1.15;;
53903;SDS011;39812;52.430;16.936;2023-07-30T13:43:30;2.15;;;1.17;;
53903;SDS011;39812;52.430;16.936;2023-07-30T13:45:56;2.88;;;1.40;;
53903;SDS011;39812;52.430;16.936;2023-07-30T13:48:23;2.05;;;1.20;;
53903;SDS011;39812;52.430;16.936;2023-07-30T13:50:49;1.25;;;1.02;;
53903;SDS011;39812;52.430;16.936;2023-07-30T13:53:15;2.80;;;1.20;;
53903;SDS011;39812;52.430;16.936;2023-07-30T13:55:41;1.45;;;1.02;;
53903;SDS011;39812;52.430;16.936;2023-07-30T13:58:06;1.73;;;0.95;;
53903;SDS011;39812;52.430;16.936;2023-07-30T14:00:33;1.63;;;1.15;;
53903;SDS011;39812;52.430;16.936;2023-07-30T14:02:58;1.50;;;1.10;;
53903;SDS011;39812;52.430;16.936;2023-07-30T14:05:24;2.00;;;1.23;;
53903;SDS011;39812;52.430;16.936;2023-07-30T14:07:50;1.98;;;0.82;;
53903;SDS011;39812;52.430;16.936;2023-07-30T14:10:18;2.60;;;0.90;;
53903;SDS011;39812;52.430;16.936;2023-07-30T14:12:45;1.50;;;1.10;;
53903;SDS011;39812;52.430;16.936;2023-07-30T14:15:10;1.08;;;0.80;;
53903;SDS011;39812;52.430;16.936;2023-07-30T14:17:36;1.27;;;0.90;;
53903;SDS011;39812;52.430;16.936;2023-07-30T14:20:01;2.38;;;0.93;;
53903;SDS011;39812;52.430;16.936;2023-07-30T14:22:27;1.67;;;0.93;;
53903;SDS011;39812;52.430;16.936;2023-07-30T14:24:53;1.60;;;1.13;;